Time,TemperatureF,DewpointF,PressureIn,WindDirection,WindDirectionDegrees,WindSpeedMPH,WindSpeedGustMPH,Humidity,HourlyPrecipIn,Conditions,Clouds,dailyrainin,SolarRadiationWatts/m^2,SoftwareType,DateUTC
2013-01-21 00:02:00,58.0,52.0,-100.00,SE,137,4.0,16.0,80,0.00,,,0.00,0.000000,,2013-01-21 10:02:00,
2013-01-21 00:22:00,58.0,52.0,-100.00,SE,137,4.0,16.0,80,0.00,,,0.00,0.000000,,2013-01-21 10:22:00,
2013-01-21 00:32:00,58.0,52.0,-100.00,SE,137,4.0,16.0,80,0.00,,,0.00,0.000000,,2013-01-21 10:32:00,
2013-01-21 00:53:00,58.0,52.0,-100.00,West,260,5.0,20.0,79,0.00,,,0.00,0.000000,,2013-01-21 10:53:00,
2013-01-21 01:02:00,58.0,52.0,-100.00,West,260,5.0,20.0,79,0.00,,,0.00,0.000000,,2013-01-21 11:02:00,
2013-01-21 01:12:00,58.0,52.0,-100.00,West,260,5.0,20.0,79,0.00,,,0.00,0.000000,,2013-01-21 11:12:00,
2013-01-21 01:22:00,58.0,52.0,-100.00,West,260,5.0,20.0,79,0.00,,,0.00,0.000000,,2013-01-21 11:22:00,
2013-01-21 01:32:00,58.0,52.0,-100.00,West,260,5.0,20.0,79,0.00,,,0.00,0.000000,,2013-01-21 11:32:00,
2013-01-21 02:02:00,58.0,52.0,-100.00,SSW,201,4.0,17.0,80,0.00,,,-99.99,0.000000,,2013-01-21 12:02:00,
2013-01-21 02:12:00,58.0,52.0,-100.00,SSW,201,4.0,17.0,80,0.00,,,-99.99,0.000000,,2013-01-21 12:12:00,
2013-01-21 02:22:00,58.0,52.0,-100.00,SSW,201,4.0,17.0,80,0.00,,,-99.99,0.000000,,2013-01-21 12:22:00,
2013-01-21 02:32:00,58.0,52.0,-100.00,SSW,201,4.0,17.0,80,0.00,,,-99.99,0.000000,,2013-01-21 12:32:00,
2013-01-21 02:53:00,56.0,50.0,-100.00,WNW,299,3.0,17.0,79,0.00,,,0.00,0.000000,,2013-01-21 12:53:00,
2013-01-21 03:02:00,56.0,50.0,-100.00,WNW,299,3.0,17.0,79,0.00,,,0.00,0.000000,,2013-01-21 13:02:00,
2013-01-21 03:12:00,56.0,50.0,-100.00,WNW,299,3.0,17.0,79,0.00,,,0.00,0.000000,,2013-01-21 13:12:00,
2013-01-21 03:22:00,56.0,50.0,-100.00,WNW,299,3.0,17.0,79,0.00,,,0.00,0.000000,,2013-01-21 13:22:00,
2013-01-21 03:32:00,56.0,50.0,-100.00,WNW,299,3.0,17.0,79,0.00,,,0.00,0.000000,,2013-01-21 13:32:00,
2013-01-21 03:53:00,56.0,50.0,-100.00,NE,45,4.0,19.0,80,0.00,,,0.00,0.000000,,2013-01-21 13:53:00,
2013-01-21 04:03:00,56.0,50.0,-100.00,NE,45,4.0,19.0,80,0.00,,,0.00,0.000000,,2013-01-21 14:03:00,
2013-01-21 04:12:00,56.0,50.0,-100.00,NE,45,4.0,19.0,80,0.00,,,0.00,0.000000,,2013-01-21 14:12:00,
2013-01-21 04:22:00,56.0,50.0,-100.00,NE,45,4.0,19.0,80,0.00,,,0.00,0.000000,,2013-01-21 14:22:00,
2013-01-21 04:32:00,56.0,50.0,-100.00,NE,45,4.0,19.0,80,0.00,,,0.00,0.000000,,2013-01-21 14:32:00,
2013-01-21 04:53:00,58.0,53.0,-100.00,ENE,73,5.0,16.0,84,0.00,,,0.00,0.000000,,2013-01-21 14:53:00,
2013-01-21 05:03:00,58.0,53.0,-100.00,ENE,73,5.0,16.0,84,0.00,,,0.00,0.000000,,2013-01-21 15:03:00,
2013-01-21 05:13:00,58.0,53.0,-100.00,ENE,73,5.0,16.0,84,0.00,,,0.00,0.000000,,2013-01-21 15:13:00,
2013-01-21 05:22:00,58.0,53.0,-100.00,ENE,73,5.0,16.0,84,0.00,,,0.00,0.000000,,2013-01-21 15:22:00,
2013-01-21 05:32:00,58.0,53.0,-100.00,ENE,73,5.0,16.0,84,0.00,,,0.00,0.000000,,2013-01-21 15:32:00,
2013-01-21 05:53:00,58.0,53.0,-100.00,ESE,113,3.0,24.0,83,0.00,,,0.00,0.000000,,2013-01-21 15:53:00,
2013-01-21 06:03:00,58.0,53.0,-100.00,ESE,113,3.0,24.0,83,0.00,,,0.00,0.000000,,2013-01-21 16:03:00,
2013-01-21 06:12:00,58.0,53.0,-100.00,ESE,113,3.0,24.0,83,0.00,,,0.00,0.000000,,2013-01-21 16:12:00,
2013-01-21 06:23:00,58.0,53.0,-100.00,ESE,113,3.0,24.0,83,0.00,,,0.00,0.000000,,2013-01-21 16:23:00,
2013-01-21 06:32:00,58.0,53.0,-100.00,ESE,113,3.0,24.0,83,0.00,,,0.00,0.000000,,2013-01-21 16:32:00,
2013-01-21 06:53:00,58.0,53.0,-100.00,SSE,161,9.0,32.0,83,0.00,,,0.00,0.000000,,2013-01-21 16:53:00,
2013-01-21 07:02:00,58.0,53.0,-100.00,SSE,161,9.0,32.0,83,0.00,,,0.00,0.000000,,2013-01-21 17:02:00,
2013-01-21 07:12:00,58.0,53.0,-100.00,SSE,161,9.0,32.0,83,0.00,,,0.00,0.000000,,2013-01-21 17:12:00,
2013-01-21 07:22:00,58.0,53.0,-100.00,SSE,161,9.0,32.0,83,0.00,,,0.00,0.000000,,2013-01-21 17:22:00,
2013-01-21 07:33:00,58.0,53.0,-100.00,SSE,161,9.0,32.0,83,0.00,,,0.00,0.000000,,2013-01-21 17:33:00,
2013-01-21 07:53:00,58.0,50.0,-100.00,SE,146,7.0,27.0,76,0.00,,,0.00,0.000000,,2013-01-21 17:53:00,
2013-01-21 08:02:00,58.0,50.0,-100.00,SE,146,7.0,27.0,76,0.00,,,0.00,0.000000,,2013-01-21 18:02:00,
2013-01-21 08:12:00,58.0,50.0,-100.00,SE,146,7.0,27.0,76,0.00,,,0.00,0.000000,,2013-01-21 18:12:00,
2013-01-21 08:22:00,58.0,50.0,-100.00,SE,146,7.0,27.0,76,0.00,,,0.00,0.000000,,2013-01-21 18:22:00,
2013-01-21 08:33:00,58.0,50.0,-100.00,SE,146,7.0,27.0,76,0.00,,,0.00,0.000000,,2013-01-21 18:33:00,
2013-01-21 08:53:00,60.0,49.0,-100.00,North,351,6.0,24.0,66,0.00,,,0.00,82.000000,,2013-01-21 18:53:00,
2013-01-21 09:03:00,60.0,49.0,-100.00,North,351,6.0,24.0,66,0.00,,,0.00,82.000000,,2013-01-21 19:03:00,
2013-01-21 09:12:00,60.0,49.0,-100.00,North,351,6.0,24.0,66,0.00,,,0.00,82.000000,,2013-01-21 19:12:00,
2013-01-21 09:22:00,60.0,49.0,-100.00,North,351,6.0,24.0,66,0.00,,,0.00,82.000000,,2013-01-21 19:22:00,
2013-01-21 09:32:00,60.0,49.0,-100.00,North,351,6.0,24.0,66,0.00,,,0.00,82.000000,,2013-01-21 19:32:00,
2013-01-21 09:53:00,64.0,54.0,-100.00,NW,304,6.0,27.0,71,0.00,,,0.00,395.000000,,2013-01-21 19:53:00,
2013-01-21 10:03:00,64.0,54.0,-100.00,NW,304,6.0,27.0,71,0.00,,,0.00,395.000000,,2013-01-21 20:03:00,
2013-01-21 10:12:00,64.0,54.0,-100.00,NW,304,6.0,27.0,71,0.00,,,0.00,395.000000,,2013-01-21 20:12:00,
2013-01-21 10:22:00,64.0,54.0,-100.00,NW,304,6.0,27.0,71,0.00,,,0.00,395.000000,,2013-01-21 20:22:00,
2013-01-21 10:32:00,64.0,54.0,-100.00,NW,304,6.0,27.0,71,0.00,,,0.00,395.000000,,2013-01-21 20:32:00,
2013-01-21 10:53:00,66.0,53.0,-100.00,ESE,114,8.0,24.0,64,0.00,,,0.00,697.000000,,2013-01-21 20:53:00,
2013-01-21 11:03:00,66.0,53.0,-100.00,ESE,114,8.0,24.0,64,0.00,,,0.00,697.000000,,2013-01-21 21:03:00,
2013-01-21 11:12:00,66.0,53.0,-100.00,ESE,114,8.0,24.0,64,0.00,,,0.00,697.000000,,2013-01-21 21:12:00,
2013-01-21 11:22:00,66.0,53.0,-100.00,ESE,114,8.0,24.0,64,0.00,,,0.00,697.000000,,2013-01-21 21:22:00,
2013-01-21 11:32:00,66.0,53.0,-100.00,ESE,114,8.0,24.0,64,0.00,,,0.00,697.000000,,2013-01-21 21:32:00,
2013-01-21 12:03:00,66.0,53.0,-100.00,NE,50,7.0,21.0,63,0.00,,,0.00,591.000000,,2013-01-21 22:03:00,
2013-01-21 12:12:00,66.0,53.0,-100.00,NE,50,7.0,21.0,63,0.00,,,0.00,591.000000,,2013-01-21 22:12:00,
2013-01-21 12:22:00,66.0,53.0,-100.00,NE,50,7.0,21.0,63,0.00,,,0.00,591.000000,,2013-01-21 22:22:00,
2013-01-21 12:32:00,66.0,53.0,-100.00,NE,50,7.0,21.0,63,0.00,,,0.00,591.000000,,2013-01-21 22:32:00,
2013-01-21 12:53:00,68.0,53.0,-100.00,ESE,122,6.0,22.0,59,0.00,,,0.00,987.000000,,2013-01-21 22:53:00,
2013-01-21 13:03:00,68.0,53.0,-100.00,ESE,122,6.0,22.0,59,0.00,,,0.00,987.000000,,2013-01-21 23:03:00,
2013-01-21 13:12:00,68.0,53.0,-100.00,ESE,122,6.0,22.0,59,0.00,,,0.00,987.000000,,2013-01-21 23:12:00,
2013-01-21 13:22:00,68.0,53.0,-100.00,ESE,122,6.0,22.0,59,0.00,,,0.00,987.000000,,2013-01-21 23:22:00,
2013-01-21 13:32:00,68.0,53.0,-100.00,ESE,122,6.0,22.0,59,0.00,,,0.00,987.000000,,2013-01-21 23:32:00,
2013-01-21 14:02:00,70.0,56.0,-100.00,NNE,26,8.0,17.0,61,0.00,,,0.00,1050.000000,,2013-01-22 00:02:00,
2013-01-21 14:12:00,70.0,56.0,-100.00,NNE,26,8.0,17.0,61,0.00,,,0.00,1050.000000,,2013-01-22 00:12:00,
2013-01-21 14:22:00,70.0,56.0,-100.00,NNE,26,8.0,17.0,61,0.00,,,0.00,1050.000000,,2013-01-22 00:22:00,
2013-01-21 14:32:00,70.0,56.0,-100.00,NNE,26,8.0,17.0,61,0.00,,,0.00,1050.000000,,2013-01-22 00:32:00,
2013-01-21 15:02:00,67.0,54.0,-100.00,East,95,6.0,24.0,64,0.00,,,0.00,916.000000,,2013-01-22 01:02:00,
2013-01-21 15:12:00,67.0,54.0,-100.00,East,95,6.0,24.0,64,0.00,,,0.00,916.000000,,2013-01-22 01:12:00,
2013-01-21 15:23:00,67.0,54.0,-100.00,East,95,6.0,24.0,64,0.00,,,0.00,916.000000,,2013-01-22 01:23:00,
2013-01-21 15:32:00,67.0,54.0,-100.00,East,95,6.0,24.0,64,0.00,,,0.00,916.000000,,2013-01-22 01:32:00,
2013-01-21 16:02:00,68.0,54.0,-100.00,ESE,104,7.0,26.0,61,0.00,,,0.00,873.000000,,2013-01-22 02:02:00,
2013-01-21 16:12:00,68.0,54.0,-100.00,ESE,104,7.0,26.0,61,0.00,,,0.00,873.000000,,2013-01-22 02:12:00,
2013-01-21 16:22:00,68.0,54.0,-100.00,ESE,104,7.0,26.0,61,0.00,,,0.00,873.000000,,2013-01-22 02:22:00,
2013-01-21 16:32:00,68.0,54.0,-100.00,ESE,104,7.0,26.0,61,0.00,,,0.00,873.000000,,2013-01-22 02:32:00,
2013-01-21 16:53:00,68.0,54.0,-100.00,South,183,6.0,23.0,62,0.00,,,0.00,765.000000,,2013-01-22 02:53:00,
2013-01-21 17:02:00,68.0,54.0,-100.00,South,183,6.0,23.0,62,0.00,,,0.00,765.000000,,2013-01-22 03:02:00,
2013-01-21 17:12:00,68.0,54.0,-100.00,South,183,6.0,23.0,62,0.00,,,0.00,765.000000,,2013-01-22 03:12:00,
2013-01-21 17:22:00,68.0,54.0,-100.00,South,183,6.0,23.0,62,0.00,,,0.00,765.000000,,2013-01-22 03:22:00,
2013-01-21 17:32:00,68.0,54.0,-100.00,South,183,6.0,23.0,62,0.00,,,0.00,765.000000,,2013-01-22 03:32:00,
2013-01-21 17:53:00,64.0,54.0,-100.00,East,94,5.0,20.0,71,0.00,,,0.00,416.000000,,2013-01-22 03:53:00,
2013-01-21 18:02:00,64.0,54.0,-100.00,East,94,5.0,20.0,71,0.00,,,0.00,416.000000,,2013-01-22 04:02:00,
2013-01-21 18:12:00,64.0,54.0,-100.00,East,94,5.0,20.0,71,0.00,,,0.00,416.000000,,2013-01-22 04:12:00,
2013-01-21 18:22:00,64.0,54.0,-100.00,East,94,5.0,20.0,71,0.00,,,0.00,416.000000,,2013-01-22 04:22:00,
2013-01-21 18:32:00,64.0,54.0,-100.00,East,94,5.0,20.0,71,0.00,,,0.00,416.000000,,2013-01-22 04:32:00,
2013-01-21 18:52:00,61.0,51.0,-100.00,NNE,26,4.0,19.0,70,0.00,,,0.00,24.000000,,2013-01-22 04:52:00,
2013-01-21 19:03:00,61.0,51.0,-100.00,NNE,26,4.0,19.0,70,0.00,,,0.00,24.000000,,2013-01-22 05:03:00,
2013-01-21 19:12:00,61.0,51.0,-100.00,NNE,26,4.0,19.0,70,0.00,,,0.00,24.000000,,2013-01-22 05:12:00,
2013-01-21 19:22:00,61.0,51.0,-100.00,NNE,26,4.0,19.0,70,0.00,,,0.00,24.000000,,2013-01-22 05:22:00,
2013-01-21 19:32:00,61.0,51.0,-100.00,NNE,26,4.0,19.0,70,0.00,,,0.00,24.000000,,2013-01-22 05:32:00,
2013-01-21 20:02:00,59.0,51.0,-100.00,North,2,3.0,17.0,75,0.00,,,0.00,2.000000,,2013-01-22 06:02:00,
2013-01-21 20:12:00,59.0,51.0,-100.00,North,2,3.0,17.0,75,0.00,,,0.00,2.000000,,2013-01-22 06:12:00,
2013-01-21 20:22:00,59.0,51.0,-100.00,North,2,3.0,17.0,75,0.00,,,0.00,2.000000,,2013-01-22 06:22:00,
2013-01-21 20:32:00,59.0,51.0,-100.00,North,2,3.0,17.0,75,0.00,,,0.00,2.000000,,2013-01-22 06:32:00,
2013-01-21 20:53:00,61.0,53.0,-100.00,North,8,5.0,19.0,74,0.00,,,0.00,0.000000,,2013-01-22 06:53:00,
2013-01-21 21:02:00,61.0,53.0,-100.00,North,8,5.0,19.0,74,0.00,,,0.00,0.000000,,2013-01-22 07:02:00,
2013-01-21 21:12:00,61.0,53.0,-100.00,North,8,5.0,19.0,74,0.00,,,0.00,0.000000,,2013-01-22 07:12:00,
2013-01-21 21:22:00,61.0,53.0,-100.00,North,8,5.0,19.0,74,0.00,,,0.00,0.000000,,2013-01-22 07:22:00,
2013-01-21 21:32:00,61.0,53.0,-100.00,North,8,5.0,19.0,74,0.00,,,0.00,0.000000,,2013-01-22 07:32:00,
2013-01-21 21:53:00,59.0,52.0,-100.00,SE,128,6.0,18.0,77,0.00,,,0.00,0.000000,,2013-01-22 07:53:00,
2013-01-21 22:02:00,59.0,52.0,-100.00,SE,128,6.0,18.0,77,0.00,,,0.00,0.000000,,2013-01-22 08:02:00,
2013-01-21 22:11:00,59.0,52.0,-100.00,SE,128,6.0,18.0,77,0.00,,,0.00,0.000000,,2013-01-22 08:11:00,
2013-01-21 22:22:00,59.0,52.0,-100.00,SE,128,6.0,18.0,77,0.00,,,0.00,0.000000,,2013-01-22 08:22:00,
2013-01-21 22:32:00,59.0,52.0,-100.00,SE,128,6.0,18.0,77,0.00,,,0.00,0.000000,,2013-01-22 08:32:00,
2013-01-21 22:52:00,59.0,50.0,-100.00,NE,36,2.0,17.0,73,0.00,,,0.00,0.000000,,2013-01-22 08:52:00,
2013-01-21 23:02:00,59.0,50.0,-100.00,NE,36,2.0,17.0,73,0.00,,,0.00,0.000000,,2013-01-22 09:02:00,
2013-01-21 23:11:00,59.0,50.0,-100.00,NE,36,2.0,17.0,73,0.00,,,0.00,0.000000,,2013-01-22 09:11:00,
2013-01-21 23:22:00,59.0,50.0,-100.00,NE,36,2.0,17.0,73,0.00,,,0.00,0.000000,,2013-01-22 09:22:00,
2013-01-21 23:32:00,59.0,50.0,-100.00,NE,36,2.0,17.0,73,0.00,,,0.00,0.000000,,2013-01-22 09:32:00,
2013-01-21 23:52:00,61.0,50.0,-100.00,North,1,2.0,10.0,66,0.00,,,0.00,0.000000,,2013-01-22 09:52:00,